Time;durP1;ratioP1;P1;durP2;ratioP2;P2;SDS_P1;SDS_P2;PMS_P1;PMS_P2;Temp;Humidity;BMP_temperature;BMP_pressure;BME280_temperature;BME280_humidity;BME280_pressure;Samples;Min_cycle;Max_cycle;Signal;HPM_P1;HPM_P2
2023/04/15 00:00:47;;;;;;;10.37;9.10;;;;;19.60;99687.00;;;;2079923;28;20452;-64
2023/04/15 00:01:48;;;;;;;8.43;7.50;;;;;19.60;99685.00;;;;2079960;28;20214;-64
2023/04/15 00:02:48;;;;;;;9.67;8.77;;;;;19.60;99684.00;;;;2080241;28;20267;-64
2023/04/15 00:03:53;;;;;;;9.03;8.13;;;;;19.60;99684.00;;;;2079493;28;20205;-64
2023/04/15 00:04:53;;;;;;;9.95;8.25;;;;;19.60;99685.00;;;;2079082;28;20281;-63
2023/04/15 00:05:53;;;;;;;9.60;7.80;;;;;19.60;99690.00;;;;2072053;28;20221;-64
2023/04/15 00:06:54;;;;;;;9.37;7.83;;;;;19.60;99688.00;;;;2082075;28;20300;-64
2023/04/15 00:07:54;;;;;;;9.30;8.00;;;;;19.60;99686.00;;;;2080338;28;20224;-64
2023/04/15 00:08:54;;;;;;;8.90;7.67;;;;;19.60;99687.00;;;;2079386;28;20604;-64
2023/04/15 00:09:56;;;;;;;8.60;7.73;;;;;19.60;99689.00;;;;2080337;28;20210;-64
2023/04/15 00:11:01;;;;;;;8.50;7.47;;;;;19.60;99685.00;;;;2079747;28;20819;-64
2023/04/15 00:12:02;;;;;;;10.05;7.63;;;;;19.60;99694.00;;;;2079385;28;20300;-64
2023/04/15 00:13:03;;;;;;;10.40;7.60;;;;;19.60;99682.00;;;;2080346;28;20213;-64
2023/04/15 00:14:05;;;;;;;9.90;8.00;;;;;19.60;99691.00;;;;2079371;28;20490;-64
2023/04/15 00:15:08;;;;;;;10.77;7.65;;;;;19.60;99686.00;;;;2080321;28;20547;-64
2023/04/15 00:16:08;;;;;;;8.00;7.20;;;;;19.60;99690.00;;;;2072666;28;20222;-64
2023/04/15 00:17:08;;;;;;;8.30;7.20;;;;;19.60;99685.00;;;;2071702;28;20301;-64
2023/04/15 00:18:09;;;;;;;7.90;6.87;;;;;19.60;99689.00;;;;2077461;28;20925;-64
2023/04/15 00:19:10;;;;;;;7.63;6.87;;;;;19.60;99687.00;;;;2079381;28;20830;-65
2023/04/15 00:20:10;;;;;;;8.93;7.43;;;;;19.60;99687.00;;;;2080273;28;20693;-64
2023/04/15 00:21:10;;;;;;;8.97;6.87;;;;;19.60;99683.00;;;;2079369;28;20275;-64
2023/04/15 00:22:11;;;;;;;8.40;6.77;;;;;19.60;99689.00;;;;2080122;28;20210;-64
2023/04/15 00:23:12;;;;;;;8.50;6.87;;;;;19.60;99687.00;;;;2079496;28;20241;-63
2023/04/15 00:24:12;;;;;;;7.53;6.70;;;;;19.50;99686.00;;;;2079578;28;20263;-66
2023/04/15 00:25:14;;;;;;;7.50;6.47;;;;;19.60;99671.00;;;;2078787;28;20456;-64
2023/04/15 00:26:14;;;;;;;8.98;7.72;;;;;19.60;99681.00;;;;2079612;28;20210;-65
2023/04/15 00:27:15;;;;;;;7.20;6.50;;;;;19.60;99683.00;;;;2079692;28;20233;-64
2023/04/15 00:28:15;;;;;;;8.50;6.63;;;;;19.60;99681.00;;;;2079287;28;20206;-64
2023/04/15 00:29:15;;;;;;;8.20;6.60;;;;;19.50;99688.00;;;;2079581;28;20229;-64
2023/04/15 00:30:16;;;;;;;7.10;5.90;;;;;19.50;99685.00;;;;2078095;28;20748;-64
2023/04/15 00:31:16;;;;;;;7.70;7.00;;;;;19.60;99685.00;;;;2080066;28;20685;-64
2023/04/15 00:32:16;;;;;;;7.40;6.23;;;;;19.60;99684.00;;;;2079563;28;20214;-64
2023/04/15 00:33:17;;;;;;;8.37;6.40;;;;;19.60;99676.00;;;;2080031;28;20241;-64
2023/04/15 00:34:17;;;;;;;8.13;5.97;;;;;19.60;99685.00;;;;2080094;28;20210;-64
2023/04/15 00:35:17;;;;;;;7.10;5.90;;;;;19.60;99688.00;;;;2084200;28;20235;-64
2023/04/15 00:36:18;;;;;;;6.93;6.23;;;;;19.50;99678.00;;;;2088548;28;20216;-64
2023/04/15 00:37:18;;;;;;;7.20;5.70;;;;;19.60;99690.00;;;;2083332;28;20241;-63
2023/04/15 00:38:19;;;;;;;7.53;6.77;;;;;19.50;99691.00;;;;2080229;28;20205;-64
2023/04/15 00:39:19;;;;;;;7.83;5.90;;;;;19.50;99684.00;;;;2079978;28;20202;-64
2023/04/15 00:40:20;;;;;;;8.00;5.83;;;;;19.50;99676.00;;;;2086849;28;20200;-64
2023/04/15 00:41:21;;;;;;;7.57;5.70;;;;;19.50;99680.00;;;;2088166;28;20209;-64
2023/04/15 00:42:22;;;;;;;7.70;6.70;;;;;19.50;99685.00;;;;2080494;28;20639;-64
2023/04/15 00:43:23;;;;;;;7.13;6.13;;;;;19.50;99676.00;;;;2079450;28;20202;-64
2023/04/15 00:44:23;;;;;;;7.00;5.70;;;;;19.50;99683.00;;;;2078624;28;20220;-64
2023/04/15 00:45:24;;;;;;;6.93;5.50;;;;;19.60;99683.00;;;;2080191;28;20214;-63
2023/04/15 00:46:24;;;;;;;7.43;5.67;;;;;19.50;99674.00;;;;2079267;28;20728;-64
2023/04/15 00:47:26;;;;;;;6.40;5.67;;;;;19.50;99678.00;;;;2085796;28;20540;-63
2023/04/15 00:48:26;;;;;;;7.15;6.07;;;;;19.50;99684.00;;;;2079435;28;20723;-63
2023/04/15 00:49:27;;;;;;;6.77;5.60;;;;;19.50;99689.00;;;;2076641;28;20276;-64
2023/04/15 00:50:28;;;;;;;6.43;5.80;;;;;19.50;99689.00;;;;2079389;28;20205;-64
2023/04/15 00:51:28;;;;;;;7.03;6.33;;;;;19.50;99690.00;;;;2076237;28;20627;-64
2023/04/15 00:52:28;;;;;;;10.47;5.90;;;;;19.50;99692.00;;;;2078856;28;20556;-64
2023/04/15 00:53:29;;;;;;;7.10;5.40;;;;;19.50;99697.00;;;;2080182;28;20636;-63
2023/04/15 00:54:29;;;;;;;6.60;5.80;;;;;19.50;99688.00;;;;2079314;28;20620;-64
2023/04/15 00:55:29;;;;;;;5.67;5.00;;;;;19.50;99686.00;;;;2079382;28;20202;-64
2023/04/15 00:56:30;;;;;;;6.47;5.40;;;;;19.50;99689.00;;;;2078650;28;20271;-64
2023/04/15 00:57:30;;;;;;;6.50;5.57;;;;;19.50;99691.00;;;;2079156;28;20249;-64
2023/04/15 00:58:31;;;;;;;5.53;5.03;;;;;19.50;99684.00;;;;2078610;28;20232;-64
2023/04/15 00:59:32;;;;;;;6.13;5.20;;;;;19.50;99689.00;;;;2070519;28;20565;-64
2023/04/15 01:00:33;;;;;;;7.18;5.00;;;;;19.40;99684.00;;;;2063138;28;20207;-64
2023/04/15 01:01:37;;;;;;;6.53;5.83;;;;;19.40;99684.00;;;;2076518;28;20738;-64
2023/04/15 01:02:37;;;;;;;7.28;5.60;;;;;19.50;99694.00;;;;2079275;28;20531;-64
2023/04/15 01:03:38;;;;;;;7.27;5.10;;;;;19.40;99682.00;;;;2079784;28;20556;-64
2023/04/15 01:04:38;;;;;;;6.10;5.27;;;;;19.50;99688.00;;;;2079894;28;20949;-64
2023/04/15 01:05:39;;;;;;;6.50;5.53;;;;;19.40;99679.00;;;;2087618;28;20318;-64
2023/04/15 01:06:39;;;;;;;5.77;4.87;;;;;19.40;99685.00;;;;2079140;28;20218;-64
2023/04/15 01:07:40;;;;;;;5.70;5.00;;;;;19.50;99688.00;;;;2078430;28;20271;-64
2023/04/15 01:08:40;;;;;;;6.53;5.20;;;;;19.40;99683.00;;;;2079817;28;20214;-64
2023/04/15 01:09:41;;;;;;;5.30;4.80;;;;;19.40;99684.00;;;;2078438;28;20218;-64
2023/04/15 01:10:41;;;;;;;5.50;4.97;;;;;19.50;99690.00;;;;2079079;28;20217;-64
2023/04/15 01:11:41;;;;;;;7.07;5.20;;;;;19.40;99670.00;;;;2078258;28;20264;-64
2023/04/15 01:12:42;;;;;;;5.60;5.10;;;;;19.40;99684.00;;;;2071123;28;20736;-63
2023/04/15 01:13:42;;;;;;;6.03;5.07;;;;;19.40;99681.00;;;;2070945;28;20674;-64
2023/04/15 01:14:42;;;;;;;6.77;5.37;;;;;19.40;99679.00;;;;2070164;28;20264;-64
2023/04/15 01:15:43;;;;;;;7.37;5.60;;;;;19.40;99681.00;;;;2071008;28;20294;-64
2023/04/15 01:16:44;;;;;;;5.87;5.27;;;;;19.40;99682.00;;;;2067702;28;20214;-64
2023/04/15 01:17:45;;;;;;;5.93;5.33;;;;;19.40;99669.00;;;;2070768;28;20555;-64
2023/04/15 01:18:45;;;;;;;5.60;4.82;;;;;19.40;99681.00;;;;2078452;28;20213;-64
2023/04/15 01:19:46;;;;;;;5.80;5.30;;;;;19.40;99689.00;;;;2079059;28;20620;-64
2023/04/15 01:20:46;;;;;;;6.00;5.07;;;;;19.40;99689.00;;;;2078929;28;20240;-64
2023/04/15 01:21:46;;;;;;;5.83;5.23;;;;;19.40;99677.00;;;;2078176;28;20209;-63
2023/04/15 01:22:47;;;;;;;5.80;5.13;;;;;19.40;99703.00;;;;2079138;28;20319;-64
2023/04/15 01:23:48;;;;;;;5.30;4.80;;;;;19.40;99699.00;;;;2078436;28;20295;-64
2023/04/15 01:24:54;;;;;;;6.77;5.00;;;;;19.40;99679.00;;;;2079290;28;20460;-64
2023/04/15 01:25:55;;;;;;;6.30;5.22;;;;;19.40;99685.00;;;;2080385;28;20222;-64
2023/04/15 01:26:55;;;;;;;5.10;4.60;;;;;19.40;99689.00;;;;2087322;28;20204;-64
2023/04/15 01:27:55;;;;;;;5.83;5.17;;;;;19.40;99687.00;;;;2085826;28;20254;-64
2023/04/15 01:28:56;;;;;;;5.80;4.60;;;;;19.40;99689.00;;;;2079609;28;20205;-64
2023/04/15 01:29:57;;;;;;;5.83;4.67;;;;;19.40;99689.00;;;;2079566;28;20720;-64
2023/04/15 01:31:13;;;;;;;5.30;4.77;;;;;19.40;99688.00;;;;2078789;28;20216;-64
2023/04/15 01:32:13;;;;;;;5.88;5.03;;;;;19.40;99680.00;;;;2078823;28;20236;-64
2023/04/15 01:33:14;;;;;;;5.60;4.73;;;;;19.40;99681.00;;;;2078300;28;20217;-64
2023/04/15 01:34:15;;;;;;;5.20;4.60;;;;;19.40;99671.00;;;;2078748;28;20584;-64
2023/04/15 01:35:15;;;;;;;5.37;4.70;;;;;19.40;99687.00;;;;2076939;28;20248;-64
2023/04/15 01:36:15;;;;;;;4.70;4.30;;;;;19.40;99693.00;;;;2079621;28;20673;-64
2023/04/15 01:37:16;;;;;;;7.00;5.37;;;;;19.40;99685.00;;;;2079064;28;20739;-63
2023/04/15 01:38:17;;;;;;;5.87;5.17;;;;;19.40;99695.00;;;;2079756;28;20676;-64
2023/04/15 01:39:18;;;;;;;5.80;4.83;;;;;19.40;99692.00;;;;2079716;28;20221;-65
2023/04/15 01:40:18;;;;;;;5.38;4.88;;;;;19.30;99693.00;;;;2079063;28;20213;-64
2023/04/15 01:41:28;;;;;;;6.50;5.23;;;;;19.20;99691.00;;;;2079725;28;20583;-64
2023/04/15 01:42:28;;;;;;;5.30;4.78;;;;;19.30;99691.00;;;;2082764;28;20217;-64
2023/04/15 01:43:28;;;;;;;5.57;5.07;;;;;19.30;99692.00;;;;2087964;28;20230;-64
2023/04/15 01:44:29;;;;;;;5.13;4.63;;;;;19.40;99693.00;;;;2084749;28;20221;-64
2023/04/15 01:45:29;;;;;;;5.23;4.73;;;;;19.30;99693.00;;;;2087254;28;20248;-64
2023/04/15 01:46:30;;;;;;;5.40;4.90;;;;;19.30;99694.00;;;;2086748;28;20266;-64
2023/04/15 01:47:31;;;;;;;5.90;5.30;;;;;19.30;99689.00;;;;2085243;28;20735;-63
2023/04/15 01:48:31;;;;;;;7.07;5.10;;;;;19.30;99692.00;;;;2087516;28;20244;-64
2023/04/15 01:49:31;;;;;;;5.13;4.73;;;;;19.30;99688.00;;;;2085629;28;20224;-64
2023/04/15 01:50:31;;;;;;;4.40;4.00;;;;;19.30;99694.00;;;;2087821;28;20241;-63
2023/04/15 01:51:32;;;;;;;4.70;4.30;;;;;19.30;99694.00;;;;2083719;28;20229;-64
2023/04/15 01:52:32;;;;;;;5.37;4.70;;;;;19.30;99694.00;;;;2079408;28;20217;-64
2023/04/15 01:53:33;;;;;;;5.70;4.43;;;;;19.30;99686.00;;;;2079224;28;20216;-64
2023/04/15 01:54:33;;;;;;;5.10;4.10;;;;;19.30;99686.00;;;;2079127;28;20218;-64
2023/04/15 01:55:33;;;;;;;7.03;4.63;;;;;19.40;99686.00;;;;2079718;28;20245;-64
2023/04/15 01:56:34;;;;;;;5.23;4.50;;;;;19.30;99687.00;;;;2078134;28;20307;-64
2023/04/15 01:57:34;;;;;;;5.00;4.27;;;;;19.30;99689.00;;;;2070846;28;20756;-64
2023/04/15 01:58:35;;;;;;;7.87;5.07;;;;;19.30;99693.00;;;;2077954;28;20233;-64
2023/04/15 01:59:36;;;;;;;5.23;4.40;;;;;19.30;99685.00;;;;2079338;28;20688;-64
2023/04/15 02:00:36;;;;;;;8.33;5.00;;;;;19.30;99683.00;;;;2079390;28;20841;-64
2023/04/15 02:01:37;;;;;;;5.50;5.00;;;;;19.10;99685.00;;;;2079067;28;20237;-64
2023/04/15 02:02:37;;;;;;;5.80;5.30;;;;;19.30;99685.00;;;;2078769;28;20217;-64
2023/04/15 02:03:38;;;;;;;5.20;4.50;;;;;19.30;99683.00;;;;2078875;28;20228;-64
2023/04/15 02:04:38;;;;;;;4.60;4.20;;;;;19.30;99692.00;;;;2078725;28;20754;-64
2023/04/15 02:05:39;;;;;;;5.67;4.73;;;;;19.30;99692.00;;;;2079542;28;20271;-64
2023/04/15 02:06:39;;;;;;;5.80;4.63;;;;;19.30;99684.00;;;;2078869;28;20221;-64
2023/04/15 02:07:39;;;;;;;4.87;3.90;;;;;19.30;99684.00;;;;2079520;28;20267;-64
2023/04/15 02:08:40;;;;;;;5.80;4.53;;;;;19.30;99685.00;;;;2079538;28;20251;-64
2023/04/15 02:09:40;;;;;;;6.60;5.00;;;;;19.30;99689.00;;;;2078543;28;20228;-64
2023/04/15 02:10:40;;;;;;;6.17;4.80;;;;;19.30;99695.00;;;;2079451;28;20217;-64
2023/04/15 02:11:41;;;;;;;7.50;5.30;;;;;19.30;99688.00;;;;2078422;28;20356;-64
2023/04/15 02:12:41;;;;;;;4.83;4.27;;;;;19.30;99690.00;;;;2079552;28;20309;-64
2023/04/15 02:13:42;;;;;;;5.20;4.67;;;;;19.30;99691.00;;;;2078119;28;20215;-63
2023/04/15 02:14:42;;;;;;;6.73;4.80;;;;;19.30;99689.00;;;;2078810;28;20627;-64
2023/04/15 02:15:47;;;;;;;5.70;5.03;;;;;19.30;99687.00;;;;2079349;28;20214;-64
2023/04/15 02:16:47;;;;;;;4.88;4.40;;;;;19.30;99688.00;;;;2084794;28;20832;-64
2023/04/15 02:17:49;;;;;;;5.43;4.23;;;;;19.30;99696.00;;;;2087790;28;20282;-64
2023/04/15 02:18:50;;;;;;;5.35;4.82;;;;;19.30;99698.00;;;;2084720;28;20299;-64
2023/04/15 02:19:51;;;;;;;6.60;5.13;;;;;19.30;99688.00;;;;2086838;28;20699;-64
2023/04/15 02:20:51;;;;;;;5.00;4.60;;;;;19.30;99698.00;;;;2085084;28;20198;-63
2023/04/15 02:21:51;;;;;;;5.57;4.97;;;;;19.20;99690.00;;;;2086512;28;20216;-64
2023/04/15 02:22:52;;;;;;;5.97;4.70;;;;;19.20;99684.00;;;;2086869;28;20262;-64
2023/04/15 02:23:56;;;;;;;4.80;4.40;;;;;19.30;99690.00;;;;2078654;28;20209;-64
2023/04/15 02:24:56;;;;;;;5.18;4.68;;;;;19.30;99677.00;;;;2079549;28;20228;-64
2023/04/15 02:25:56;;;;;;;5.70;5.00;;;;;19.30;99680.00;;;;2078546;28;20554;-64
2023/04/15 02:26:57;;;;;;;5.17;4.50;;;;;19.20;99686.00;;;;2079425;28;20560;-64
2023/04/15 02:27:57;;;;;;;5.37;4.73;;;;;19.20;99686.00;;;;2078456;28;20209;-64
2023/04/15 02:28:58;;;;;;;5.20;4.63;;;;;19.20;99684.00;;;;2078482;28;20584;-64
2023/04/15 02:29:58;;;;;;;6.70;4.63;;;;;19.20;99683.00;;;;2079270;28;20708;-63
2023/04/15 02:31:00;;;;;;;6.13;5.20;;;;;19.20;99701.00;;;;2078575;28;20232;-63
2023/04/15 02:32:00;;;;;;;5.22;4.72;;;;;19.30;99690.00;;;;2079182;28;20719;-64
2023/04/15 02:33:02;;;;;;;6.20;4.73;;;;;19.30;99688.00;;;;2081202;28;20219;-64
2023/04/15 02:34:03;;;;;;;5.35;4.85;;;;;19.30;99693.00;;;;2087627;28;20209;-64
2023/04/15 02:35:04;;;;;;;5.72;5.10;;;;;19.20;99691.00;;;;2085036;28;20211;-64
2023/04/15 02:36:05;;;;;;;5.18;4.65;;;;;19.20;99696.00;;;;2071142;28;20904;-64
2023/04/15 02:37:06;;;;;;;5.15;4.53;;;;;19.30;99702.00;;;;2071263;28;20229;-64
2023/04/15 02:38:07;;;;;;;5.60;5.00;;;;;19.20;99711.00;;;;2077823;28;20260;-63
2023/04/15 02:39:07;;;;;;;5.20;4.70;;;;;19.20;99707.00;;;;2079447;28;20468;-64
2023/04/15 02:40:10;;;;;;;4.70;4.23;;;;;19.20;99704.00;;;;2078597;28;20244;-64
2023/04/15 02:41:11;;;;;;;5.90;5.07;;;;;19.20;99709.00;;;;2079491;28;20220;-64
2023/04/15 02:42:12;;;;;;;4.77;4.27;;;;;19.20;99713.00;;;;2077520;28;20232;-63
2023/04/15 02:43:12;;;;;;;6.28;5.25;;;;;19.20;99722.00;;;;2078829;28;20275;-64
2023/04/15 02:44:12;;;;;;;5.10;4.60;;;;;19.20;99716.00;;;;2079244;28;20213;-64
2023/04/15 02:45:13;;;;;;;5.43;4.70;;;;;19.20;99714.00;;;;2078813;28;20557;-64
2023/04/15 02:46:13;;;;;;;5.97;4.73;;;;;19.20;99721.00;;;;2079405;28;20600;-63
2023/04/15 02:47:14;;;;;;;6.80;5.20;;;;;19.20;99723.00;;;;2078680;28;20684;-64
2023/04/15 02:48:16;;;;;;;5.85;5.25;;;;;19.20;99718.00;;;;2079177;28;20696;-65
2023/04/15 02:49:17;;;;;;;5.47;4.97;;;;;19.20;99726.00;;;;2077576;28;20291;-64
2023/04/15 02:50:17;;;;;;;5.57;5.00;;;;;19.20;99726.00;;;;2078802;28;20228;-64
2023/04/15 02:51:19;;;;;;;5.27;4.73;;;;;19.20;99727.00;;;;2079429;28;20313;-64
2023/04/15 02:52:20;;;;;;;5.55;5.05;;;;;19.20;99722.00;;;;2081924;28;20311;-64
2023/04/15 02:53:20;;;;;;;5.30;4.80;;;;;19.20;99723.00;;;;2078737;28;20726;-63
2023/04/15 02:54:24;;;;;;;4.97;4.57;;;;;19.20;99724.00;;;;2078627;28;20201;-64
2023/04/15 02:55:24;;;;;;;6.03;5.20;;;;;19.20;99722.00;;;;2078499;28;20284;-64
2023/04/15 02:56:26;;;;;;;5.70;5.20;;;;;19.20;99718.00;;;;2069637;28;22878;-64
2023/04/15 02:57:28;;;;;;;6.35;5.78;;;;;19.20;99675.00;;;;2078740;28;20236;-64
2023/04/15 02:58:28;;;;;;;6.13;5.55;;;;;19.10;99729.00;;;;2079310;28;20256;-63
2023/04/15 02:59:28;;;;;;;6.10;5.50;;;;;19.20;99730.00;;;;2078500;28;20688;-64
2023/04/15 03:00:29;;;;;;;5.90;4.70;;;;;19.10;99721.00;;;;2079301;28;20205;-64
2023/04/15 03:01:29;;;;;;;5.50;5.00;;;;;19.20;99723.00;;;;2080116;28;20220;-64
2023/04/15 03:02:34;;;;;;;5.73;5.13;;;;;19.10;99720.00;;;;2079036;28;20275;-63
2023/04/15 03:03:34;;;;;;;5.68;5.18;;;;;19.20;99729.00;;;;2079340;28;20755;-64
2023/04/15 03:04:34;;;;;;;6.37;5.77;;;;;19.10;99731.00;;;;2078835;28;20239;-64
2023/04/15 03:05:37;;;;;;;5.13;4.67;;;;;19.20;99726.00;;;;2087383;28;20223;-64
2023/04/15 03:06:38;;;;;;;5.88;5.38;;;;;19.20;99723.00;;;;2087133;28;20209;-64
2023/04/15 03:07:39;;;;;;;5.93;5.33;;;;;19.10;99717.00;;;;2078114;28;20217;-64
2023/04/15 03:08:40;;;;;;;5.55;5.05;;;;;19.10;99724.00;;;;2078504;28;20244;-64
2023/04/15 03:09:40;;;;;;;5.90;5.30;;;;;19.10;99717.00;;;;2081107;28;20216;-64
2023/04/15 03:10:41;;;;;;;6.93;5.30;;;;;19.10;99732.00;;;;2087396;28;20215;-64
2023/04/15 03:11:41;;;;;;;5.93;5.30;;;;;19.10;99727.00;;;;2083996;28;20229;-64
2023/04/15 03:12:41;;;;;;;6.07;5.43;;;;;19.10;99726.00;;;;2086466;28;20216;-64
2023/04/15 03:13:42;;;;;;;6.43;5.33;;;;;19.10;99726.00;;;;2087529;28;20262;-64
2023/04/15 03:14:42;;;;;;;5.93;5.30;;;;;19.10;99734.00;;;;2078900;28;20217;-64
2023/04/15 03:15:43;;;;;;;6.50;5.90;;;;;19.20;99731.00;;;;2079316;28;20237;-64
2023/04/15 03:16:43;;;;;;;6.03;5.43;;;;;19.10;99730.00;;;;2081592;28;20209;-64
2023/04/15 03:17:43;;;;;;;5.87;5.33;;;;;19.10;99732.00;;;;2087273;28;20212;-64
2023/04/15 03:18:44;;;;;;;5.80;5.20;;;;;19.10;99732.00;;;;2084339;28;20220;-64
2023/04/15 03:19:44;;;;;;;7.03;5.40;;;;;19.10;99726.00;;;;2079208;28;20217;-64
2023/04/15 03:20:44;;;;;;;5.50;4.50;;;;;19.10;99729.00;;;;2079076;28;20270;-63
2023/04/15 03:21:45;;;;;;;7.17;4.90;;;;;19.10;99733.00;;;;2078041;28;20242;-63
2023/04/15 03:22:45;;;;;;;6.30;5.43;;;;;19.10;99735.00;;;;2078907;28;20217;-65
2023/04/15 03:23:47;;;;;;;6.07;5.40;;;;;19.10;99726.00;;;;2079717;28;20241;-64
2023/04/15 03:24:47;;;;;;;5.72;4.80;;;;;19.10;99731.00;;;;2079305;28;20218;-63
2023/04/15 03:25:48;;;;;;;5.40;4.70;;;;;19.20;99727.00;;;;2078424;28;20216;-64
2023/04/15 03:26:48;;;;;;;5.70;5.20;;;;;19.10;99732.00;;;;2079208;28;20210;-64
2023/04/15 03:27:48;;;;;;;6.10;5.50;;;;;19.10;99727.00;;;;2079258;28;20214;-64
2023/04/15 03:28:49;;;;;;;5.00;4.60;;;;;19.10;99733.00;;;;2078423;28;20217;-63
2023/04/15 03:29:49;;;;;;;6.27;5.67;;;;;19.10;99728.00;;;;2078962;28;20225;-64
2023/04/15 03:30:49;;;;;;;5.13;4.63;;;;;19.10;99733.00;;;;2078405;28;20216;-63
2023/04/15 03:31:51;;;;;;;6.03;5.43;;;;;19.10;99732.00;;;;2078906;28;20213;-63
2023/04/15 03:32:51;;;;;;;5.82;5.32;;;;;19.20;99736.00;;;;2079399;28;20217;-63
2023/04/15 03:33:51;;;;;;;5.83;5.30;;;;;19.10;99742.00;;;;2080799;28;20703;-63
2023/04/15 03:34:52;;;;;;;6.33;5.73;;;;;19.10;99734.00;;;;2080533;28;20210;-64
2023/04/15 03:35:52;;;;;;;5.67;5.07;;;;;19.10;99736.00;;;;2080075;28;20216;-64
2023/04/15 03:36:52;;;;;;;5.53;5.03;;;;;19.10;99732.00;;;;2080701;28;20209;-64
2023/04/15 03:37:52;;;;;;;5.03;4.53;;;;;19.10;99739.00;;;;2079992;28;20210;-64
2023/04/15 03:38:53;;;;;;;5.67;5.17;;;;;19.10;99746.00;;;;2080693;28;20347;-63
2023/04/15 03:39:54;;;;;;;5.60;5.10;;;;;19.00;99736.00;;;;2079492;28;20209;-64
2023/04/15 03:40:55;;;;;;;5.55;5.05;;;;;19.10;99736.00;;;;2080651;28;20841;-64
2023/04/15 03:41:56;;;;;;;5.97;5.37;;;;;19.10;99741.00;;;;2079327;28;20229;-64
2023/04/15 03:42:57;;;;;;;5.50;5.07;;;;;19.10;99746.00;;;;2080109;28;20584;-64
2023/04/15 03:43:57;;;;;;;5.80;5.30;;;;;19.10;99743.00;;;;2080517;28;20566;-64
2023/04/15 03:44:57;;;;;;;5.30;4.80;;;;;19.10;99744.00;;;;2079889;28;20217;-64
2023/04/15 03:45:58;;;;;;;5.90;5.30;;;;;19.10;99740.00;;;;2080467;28;20215;-64
2023/04/15 03:46:58;;;;;;;6.60;5.93;;;;;19.10;99746.00;;;;2079661;28;20209;-63
2023/04/15 03:47:58;;;;;;;5.20;4.70;;;;;19.00;99750.00;;;;2080581;28;20360;-64
2023/04/15 03:48:59;;;;;;;5.90;5.40;;;;;19.10;99752.00;;;;2080515;28;20209;-64
2023/04/15 03:49:59;;;;;;;7.20;5.50;;;;;19.10;99758.00;;;;2086861;28;20227;-63
2023/04/15 03:51:00;;;;;;;6.20;5.13;;;;;19.10;99750.00;;;;2088849;28;20961;-63
2023/04/15 03:52:00;;;;;;;6.13;4.90;;;;;19.10;99756.00;;;;2081546;28;20225;-64
2023/04/15 03:53:00;;;;;;;6.20;5.60;;;;;19.00;99755.00;;;;2079505;28;20202;-64
2023/04/15 03:54:01;;;;;;;5.63;5.13;;;;;19.10;99757.00;;;;2079745;28;20232;-64
2023/04/15 03:55:01;;;;;;;5.63;5.03;;;;;19.00;99764.00;;;;2080567;28;20554;-64
2023/04/15 03:56:01;;;;;;;6.80;5.70;;;;;19.00;99757.00;;;;2080583;28;20638;-63
2023/04/15 03:57:02;;;;;;;5.20;4.70;;;;;19.00;99755.00;;;;2079732;28;20221;-63
2023/04/15 03:58:02;;;;;;;6.03;5.53;;;;;19.00;99762.00;;;;2080452;28;20566;-64
2023/04/15 03:59:02;;;;;;;5.40;4.90;;;;;19.00;99759.00;;;;2079877;28;20723;-64
2023/04/15 04:00:06;;;;;;;7.43;5.70;;;;;19.00;99757.00;;;;2080570;28;20700;-64
2023/04/15 04:01:07;;;;;;;5.78;5.28;;;;;19.00;99759.00;;;;2079757;28;20221;-63
2023/04/15 04:02:07;;;;;;;5.67;5.17;;;;;19.00;99765.00;;;;2087675;28;20251;-64
2023/04/15 04:03:07;;;;;;;6.37;5.77;;;;;19.00;99756.00;;;;2087895;28;20220;-64
2023/04/15 04:04:08;;;;;;;6.20;5.60;;;;;19.00;99759.00;;;;2088120;28;20406;-64
2023/04/15 04:05:08;;;;;;;5.63;5.13;;;;;19.00;99766.00;;;;2078766;28;20224;-63
2023/04/15 04:06:11;;;;;;;5.90;5.20;;;;;19.00;99766.00;;;;2080533;28;20241;-64
2023/04/15 04:07:15;;;;;;;5.97;4.82;;;;;19.00;99756.00;;;;2079636;28;20209;-64
2023/04/15 04:08:16;;;;;;;5.72;4.95;;;;;19.00;99759.00;;;;2079533;28;20638;-65
2023/04/15 04:09:16;;;;;;;6.43;5.83;;;;;19.00;99765.00;;;;2078787;28;20213;-64
2023/04/15 04:10:17;;;;;;;6.73;5.47;;;;;19.00;99764.00;;;;2080552;28;20296;-64
2023/04/15 04:11:18;;;;;;;6.20;5.63;;;;;19.00;99763.00;;;;2080305;28;20288;-64
2023/04/15 04:12:18;;;;;;;6.27;5.67;;;;;19.00;99760.00;;;;2086292;28;20240;-64
2023/04/15 04:13:18;;;;;;;6.43;5.73;;;;;19.00;99764.00;;;;2088491;28;20317;-63
2023/04/15 04:14:19;;;;;;;5.90;5.33;;;;;19.00;99749.00;;;;2082088;28;20213;-64
2023/04/15 04:15:19;;;;;;;6.23;5.63;;;;;19.00;99758.00;;;;2080482;28;20246;-63
2023/04/15 04:16:19;;;;;;;6.07;5.57;;;;;19.00;99764.00;;;;2079613;28;20213;-64
2023/04/15 04:17:20;;;;;;;5.00;4.60;;;;;19.00;99770.00;;;;2080349;28;20644;-64
2023/04/15 04:18:20;;;;;;;5.90;5.40;;;;;19.00;99765.00;;;;2080371;28;20591;-62
2023/04/15 04:19:20;;;;;;;6.13;5.53;;;;;19.00;99765.00;;;;2079619;28;20712;-63
2023/04/15 04:20:21;;;;;;;6.20;5.70;;;;;19.00;99767.00;;;;2080464;28;20268;-64
2023/04/15 04:21:21;;;;;;;6.13;5.57;;;;;19.00;99761.00;;;;2078889;28;20205;-64
2023/04/15 04:22:22;;;;;;;6.53;5.87;;;;;19.00;99765.00;;;;2079387;28;20268;-64
2023/04/15 04:23:23;;;;;;;7.70;5.30;;;;;19.00;99762.00;;;;2080890;28;20255;-64
2023/04/15 04:24:23;;;;;;;5.40;5.00;;;;;19.00;99770.00;;;;2088607;28;20268;-64
2023/04/15 04:25:24;;;;;;;5.80;5.30;;;;;18.90;99777.00;;;;2078653;28;20216;-64
2023/04/15 04:26:25;;;;;;;7.00;6.18;;;;;19.00;99774.00;;;;2078635;28;20236;-64
2023/04/15 04:27:25;;;;;;;6.20;5.60;;;;;19.00;99771.00;;;;2088559;28;20216;-64
2023/04/15 04:28:25;;;;;;;6.20;5.60;;;;;19.00;99773.00;;;;2081701;28;20212;-64
2023/04/15 04:29:26;;;;;;;6.37;5.77;;;;;18.90;99774.00;;;;2079921;28;20220;-64
2023/04/15 04:30:26;;;;;;;6.43;5.83;;;;;19.00;99772.00;;;;2079291;28;20247;-64
2023/04/15 04:31:26;;;;;;;7.50;5.77;;;;;18.90;99778.00;;;;2080296;28;20206;-64
2023/04/15 04:32:27;;;;;;;6.57;5.97;;;;;19.00;99769.00;;;;2079173;28;20216;-64
2023/04/15 04:33:27;;;;;;;6.70;6.10;;;;;19.00;99777.00;;;;2078971;28;20213;-64
2023/04/15 04:34:27;;;;;;;5.63;5.13;;;;;18.90;99776.00;;;;2079608;28;20259;-64
2023/04/15 04:35:28;;;;;;;6.83;6.13;;;;;18.90;99777.00;;;;2078791;28;20206;-63
2023/04/15 04:36:28;;;;;;;6.03;5.43;;;;;18.90;99770.00;;;;2080106;28;20268;-64
2023/04/15 04:37:28;;;;;;;6.20;5.60;;;;;18.90;99777.00;;;;2079400;28;20244;-64
2023/04/15 04:38:29;;;;;;;6.57;5.97;;;;;18.90;99779.00;;;;2076378;28;20211;-64
2023/04/15 04:39:29;;;;;;;5.87;5.30;;;;;19.00;99772.00;;;;2079855;28;20204;-64
2023/04/15 04:40:30;;;;;;;6.43;5.43;;;;;18.90;99777.00;;;;2079648;28;20244;-63
2023/04/15 04:41:31;;;;;;;6.37;5.63;;;;;19.00;99788.00;;;;2080143;28;20198;-64
2023/04/15 04:42:31;;;;;;;5.75;5.25;;;;;18.90;99796.00;;;;2084049;28;20262;-63
2023/04/15 04:43:32;;;;;;;6.20;5.60;;;;;18.90;99792.00;;;;2088125;28;20660;-64
2023/04/15 04:44:32;;;;;;;6.13;5.53;;;;;18.90;99788.00;;;;2086095;28;20248;-63
2023/04/15 04:45:32;;;;;;;6.10;5.60;;;;;18.90;99783.00;;;;2088523;28;20208;-64
2023/04/15 04:46:33;;;;;;;6.20;5.60;;;;;18.90;99790.00;;;;2086723;28;20251;-64
2023/04/15 04:47:33;;;;;;;6.70;6.10;;;;;18.90;99794.00;;;;2087500;28;20559;-64
2023/04/15 04:48:33;;;;;;;6.30;5.70;;;;;18.90;99789.00;;;;2088628;28;20220;-64
2023/04/15 04:49:34;;;;;;;6.03;5.30;;;;;18.90;99791.00;;;;2086105;28;20217;-64
2023/04/15 04:50:34;;;;;;;5.90;5.40;;;;;18.90;99788.00;;;;2088586;28;20242;-64
2023/04/15 04:51:35;;;;;;;6.40;5.80;;;;;18.90;99796.00;;;;2083555;28;20250;-64
2023/04/15 04:52:35;;;;;;;6.83;6.23;;;;;19.00;99795.00;;;;2079211;28;20213;-64
2023/04/15 04:53:36;;;;;;;6.27;5.63;;;;;19.00;99803.00;;;;2079286;28;20221;-63
2023/04/15 04:54:36;;;;;;;6.60;6.00;;;;;18.90;99801.00;;;;2087446;28;20253;-64
2023/04/15 04:55:37;;;;;;;6.67;5.93;;;;;18.90;99801.00;;;;2088471;28;20454;-64
2023/04/15 04:56:38;;;;;;;6.20;5.60;;;;;18.90;99799.00;;;;2080718;28;20213;-64
2023/04/15 04:57:38;;;;;;;8.25;5.85;;;;;18.90;99799.00;;;;2080105;28;20210;-64
2023/04/15 04:58:39;;;;;;;6.50;5.90;;;;;18.90;99800.00;;;;2081807;28;20221;-64
2023/04/15 04:59:39;;;;;;;5.63;5.13;;;;;18.90;99801.00;;;;2088167;28;20228;-64
2023/04/15 05:00:39;;;;;;;6.13;5.53;;;;;18.90;99810.00;;;;2087627;28;20213;-63
2023/04/15 05:01:40;;;;;;;6.13;5.60;;;;;18.90;99799.00;;;;2079183;28;20221;-64
2023/04/15 05:02:42;;;;;;;5.70;5.00;;;;;18.90;99806.00;;;;2080019;28;20231;-63
2023/04/15 05:03:43;;;;;;;8.75;6.40;;;;;18.90;99805.00;;;;2079956;28;20472;-64
2023/04/15 05:04:43;;;;;;;5.67;5.17;;;;;18.90;99809.00;;;;2082716;28;20274;-64